Time;durP1;ratioP1;P1;durP2;ratioP2;P2;SDS_P1;SDS_P2;PMS_P1;PMS_P2;Temp;Humidity;BMP_temperature;BMP_pressure;BME280_temperature;BME280_humidity;BME280_pressure;Samples;Min_cycle;Max_cycle;Signal;HPM_P1;HPM_P2
2023/02/11 00:01:48;;;;;;;22.67;9.20;;;;;;;;;;4962622;28;20133;-70
2023/02/11 00:04:14;;;;;;;19.67;9.13;;;;;;;;;;4962352;28;20471;-70
2023/02/11 00:06:40;;;;;;;18.27;7.90;;;;;;;;;;4962502;28;20034;-70
2023/02/11 00:09:06;;;;;;;17.57;8.47;;;;;;;;;;4978326;28;20029;-71
2023/02/11 00:11:33;;;;;;;18.40;8.07;;;;;;;;;;4994610;28;20050;-70
2023/02/11 00:14:00;;;;;;;20.17;8.80;;;;;;;;;;4993689;28;20111;-70
2023/02/11 00:16:26;;;;;;;14.27;7.50;;;;;;;;;;4977551;28;20049;-70
2023/02/11 00:18:52;;;;;;;23.30;8.80;;;;;;;;;;4977349;28;20424;-70
2023/02/11 00:21:22;;;;;;;19.83;8.37;;;;;;;;;;4977843;28;20053;-70
2023/02/11 00:23:48;;;;;;;19.17;8.07;;;;;;;;;;4977688;28;20033;-70
2023/02/11 00:26:19;;;;;;;18.77;8.57;;;;;;;;;;4976879;28;20145;-70
2023/02/11 00:28:47;;;;;;;17.87;9.10;;;;;;;;;;4965386;28;20038;-70
2023/02/11 00:31:13;;;;;;;19.80;7.63;;;;;;;;;;4942923;28;20831;-70
2023/02/11 00:33:39;;;;;;;21.40;9.33;;;;;;;;;;4974956;28;20050;-70
2023/02/11 00:36:06;;;;;;;20.63;7.80;;;;;;;;;;4974542;28;20050;-70
2023/02/11 00:38:32;;;;;;;19.13;7.53;;;;;;;;;;4959135;28;20185;-70
2023/02/11 00:40:58;;;;;;;23.77;8.43;;;;;;;;;;4958975;28;20472;-70
2023/02/11 00:43:24;;;;;;;23.93;8.10;;;;;;;;;;4958798;28;20034;-71
2023/02/11 00:45:51;;;;;;;16.57;7.20;;;;;;;;;;4975004;28;20077;-70
2023/02/11 00:48:16;;;;;;;15.00;6.80;;;;;;;;;;4942908;28;20076;-70
2023/02/11 00:50:42;;;;;;;19.80;7.10;;;;;;;;;;4974870;28;20105;-70
2023/02/11 00:53:08;;;;;;;19.83;8.53;;;;;;;;;;4942557;28;20054;-70
2023/02/11 00:55:34;;;;;;;19.57;7.07;;;;;;;;;;4959070;28;20034;-70
2023/02/11 00:58:01;;;;;;;19.30;7.23;;;;;;;;;;4958681;28;20169;-70
2023/02/11 01:00:27;;;;;;;18.60;7.23;;;;;;;;;;4960794;28;20974;-70
2023/02/11 01:02:54;;;;;;;19.17;7.27;;;;;;;;;;4978322;28;20092;-70
2023/02/11 01:05:22;;;;;;;16.23;6.60;;;;;;;;;;4946803;28;20127;-70
2023/02/11 01:07:48;;;;;;;22.10;8.33;;;;;;;;;;4977475;28;20492;-70
2023/02/11 01:10:15;;;;;;;20.03;8.30;;;;;;;;;;4994390;28;20034;-70
2023/02/11 01:12:41;;;;;;;15.87;6.57;;;;;;;;;;4977869;28;20050;-70
2023/02/11 01:15:08;;;;;;;15.70;6.87;;;;;;;;;;4945812;28;20124;-71
2023/02/11 01:17:34;;;;;;;14.80;7.27;;;;;;;;;;4977990;28;20136;-70
2023/02/11 01:20:02;;;;;;;18.57;7.77;;;;;;;;;;4961886;28;20065;-70
2023/02/11 01:22:30;;;;;;;15.77;6.50;;;;;;;;;;4978065;28;20100;-71
2023/02/11 01:24:55;;;;;;;18.87;8.40;;;;;;;;;;4946178;28;20044;-71
2023/02/11 01:27:21;;;;;;;12.90;7.00;;;;;;;;;;4978649;28;20034;-71
2023/02/11 01:29:47;;;;;;;18.97;8.03;;;;;;;;;;4978814;28;20054;-70
2023/02/11 01:32:12;;;;;;;15.87;7.03;;;;;;;;;;4978097;28;20034;-71
2023/02/11 01:34:38;;;;;;;15.30;7.00;;;;;;;;;;4977536;28;20463;-71
2023/02/11 01:37:05;;;;;;;22.90;7.53;;;;;;;;;;4977717;28;20365;-70
2023/02/11 01:39:34;;;;;;;19.53;7.63;;;;;;;;;;4961313;28;20122;-70
2023/02/11 01:42:01;;;;;;;16.63;7.43;;;;;;;;;;4961425;28;20112;-70
2023/02/11 01:44:30;;;;;;;16.73;7.30;;;;;;;;;;4977503;28;20034;-70
2023/02/11 01:46:56;;;;;;;16.70;7.30;;;;;;;;;;4945860;28;20050;-70
2023/02/11 01:49:35;;;;;;;13.30;6.53;;;;;;;;;;4945690;28;20104;-70
2023/02/11 01:52:04;;;;;;;19.50;7.95;;;;;;;;;;4993483;28;20121;-70
2023/02/11 01:57:26;;;;;;;13.30;6.70;;;;;;;;;;4961147;28;20132;-71
2023/02/11 02:00:12;;;;;;;18.93;6.70;;;;;;;;;;4961765;28;20136;-70
2023/02/11 02:02:45;;;;;;;14.43;7.40;;;;;;;;;;4977836;28;20076;-70
2023/02/11 02:05:27;;;;;;;16.30;6.30;;;;;;;;;;4945306;28;20041;-70
2023/02/11 02:08:02;;;;;;;16.87;5.67;;;;;;;;;;4945380;28;20105;-70
2023/02/11 02:10:28;;;;;;;14.33;6.00;;;;;;;;;;4959989;28;20054;-71
2023/02/11 02:12:54;;;;;;;14.30;6.53;;;;;;;;;;4945451;28;20046;-70
2023/02/11 02:15:20;;;;;;;14.63;6.37;;;;;;;;;;4977215;28;20428;-71
2023/02/11 02:18:06;;;;;;;14.70;6.07;;;;;;;;;;4945049;28;20042;-71
2023/02/11 02:20:38;;;;;;;13.00;5.87;;;;;;;;;;4963585;28;20051;-70
2023/02/11 02:23:04;;;;;;;15.40;6.27;;;;;;;;;;4976838;28;20129;-71
2023/02/11 02:25:46;;;;;;;14.53;4.93;;;;;;;;;;4976655;28;20137;-71
2023/02/11 02:28:24;;;;;;;14.13;6.13;;;;;;;;;;4976925;28;20046;-70
2023/02/11 02:31:05;;;;;;;14.00;5.77;;;;;;;;;;4960664;28;20041;-70
2023/02/11 02:34:03;;;;;;;11.35;5.47;;;;;;;;;;4944699;28;20100;-71
2023/02/11 02:36:32;;;;;;;12.60;5.83;;;;;;;;;;4934832;28;20042;-71
2023/02/11 02:39:00;;;;;;;15.30;5.97;;;;;;;;;;4944751;28;20034;-70
2023/02/11 02:41:28;;;;;;;14.47;5.33;;;;;;;;;;4977096;28;20046;-70
2023/02/11 02:43:54;;;;;;;12.00;5.73;;;;;;;;;;4976703;28;20050;-71
2023/02/11 02:46:22;;;;;;;15.17;5.87;;;;;;;;;;4944297;28;20053;-70
2023/02/11 02:48:48;;;;;;;12.27;5.63;;;;;;;;;;4960470;28;20045;-70
2023/02/11 02:51:14;;;;;;;13.07;5.60;;;;;;;;;;4960101;28;20050;-70
2023/02/11 02:53:58;;;;;;;13.20;5.73;;;;;;;;;;4944076;28;20378;-70
2023/02/11 02:56:42;;;;;;;12.87;5.63;;;;;;;;;;4944141;28;20053;-71
2023/02/11 02:59:26;;;;;;;13.40;5.67;;;;;;;;;;4976179;28;20061;-70
2023/02/11 03:02:09;;;;;;;17.17;6.03;;;;;;;;;;4960132;28;20034;-70
2023/02/11 03:04:39;;;;;;;19.30;5.17;;;;;;;;;;4992334;28;20046;-70
2023/02/11 03:07:14;;;;;;;12.83;5.30;;;;;;;;;;4943352;28;20050;-71
2023/02/11 03:09:43;;;;;;;10.00;4.80;;;;;;;;;;4992366;28;20100;-70
2023/02/11 03:12:10;;;;;;;11.70;5.00;;;;;;;;;;4943780;28;20531;-70
2023/02/11 03:14:37;;;;;;;14.40;5.37;;;;;;;;;;4976070;28;20108;-70
2023/02/11 03:17:04;;;;;;;11.23;4.93;;;;;;;;;;4959887;28;20042;-70
2023/02/11 03:19:34;;;;;;;11.80;4.43;;;;;;;;;;4976068;28;20038;-70
2023/02/11 03:22:01;;;;;;;10.97;5.03;;;;;;;;;;4943601;28;20489;-70
2023/02/11 03:24:30;;;;;;;12.47;4.40;;;;;;;;;;4975537;28;20038;-71
2023/02/11 03:27:00;;;;;;;11.53;4.43;;;;;;;;;;4943979;28;20448;-71
2023/02/11 03:29:29;;;;;;;13.53;4.67;;;;;;;;;;4991763;28;20041;-70
2023/02/11 03:31:55;;;;;;;10.87;4.80;;;;;;;;;;4975499;28;20041;-71
2023/02/11 03:34:41;;;;;;;10.87;4.17;;;;;;;;;;4943259;28;20476;-70
2023/02/11 03:37:33;;;;;;;14.00;5.40;;;;;;;;;;4975437;28;20039;-71
2023/02/11 03:40:05;;;;;;;9.40;4.40;;;;;;;;;;4971758;28;20058;-70
2023/02/11 03:42:34;;;;;;;7.70;4.20;;;;;;;;;;4943504;28;20097;-70
2023/02/11 03:45:04;;;;;;;9.93;4.70;;;;;;;;;;4959304;28;20473;-70
2023/02/11 03:47:31;;;;;;;11.57;4.40;;;;;;;;;;4975240;28;20125;-70
2023/02/11 03:49:58;;;;;;;13.33;4.30;;;;;;;;;;4975459;28;20038;-70
2023/02/11 03:52:25;;;;;;;12.57;4.60;;;;;;;;;;4943021;28;20050;-70
2023/02/11 03:54:53;;;;;;;11.17;4.60;;;;;;;;;;4943224;28;20061;-70
2023/02/11 03:57:19;;;;;;;13.40;4.50;;;;;;;;;;4975098;28;20046;-70
2023/02/11 03:59:55;;;;;;;15.43;3.60;;;;;;;;;;4943343;28;20046;-69
2023/02/11 04:02:23;;;;;;;10.17;4.10;;;;;;;;;;4959101;28;20487;-71
2023/02/11 04:04:49;;;;;;;9.20;3.97;;;;;;;;;;4943484;28;20034;-70
2023/02/11 04:07:15;;;;;;;12.60;4.23;;;;;;;;;;4959087;28;20038;-71
2023/02/11 04:09:41;;;;;;;13.07;4.30;;;;;;;;;;4991449;28;20045;-70
2023/02/11 04:12:07;;;;;;;10.37;3.50;;;;;;;;;;4974800;28;20034;-70
2023/02/11 04:14:33;;;;;;;10.47;3.63;;;;;;;;;;4959412;28;20045;-71
2023/02/11 04:17:00;;;;;;;9.37;3.60;;;;;;;;;;4958813;28;20133;-75
2023/02/11 04:19:26;;;;;;;12.20;4.60;;;;;;;;;;4959046;28;20508;-73
2023/02/11 04:21:52;;;;;;;6.97;3.47;;;;;;;;;;4943086;28;20069;-74
2023/02/11 04:24:17;;;;;;;7.87;3.63;;;;;;;;;;4974814;28;20049;-72
2023/02/11 04:26:43;;;;;;;7.80;3.57;;;;;;;;;;4975085;28;20124;-72
2023/02/11 04:29:09;;;;;;;12.47;3.97;;;;;;;;;;4975055;28;20065;-73
2023/02/11 04:31:34;;;;;;;12.27;3.83;;;;;;;;;;4959107;28;20038;-72
2023/02/11 04:34:00;;;;;;;10.37;3.40;;;;;;;;;;4974828;28;20491;-71
2023/02/11 04:36:25;;;;;;;11.00;3.80;;;;;;;;;;4978557;28;20624;-72
2023/02/11 04:38:51;;;;;;;10.20;4.03;;;;;;;;;;4978576;28;20041;-76
2023/02/11 04:41:17;;;;;;;11.97;4.10;;;;;;;;;;4978502;28;20030;-73
2023/02/11 04:43:42;;;;;;;8.53;3.57;;;;;;;;;;4946665;28;20185;-73
2023/02/11 04:46:08;;;;;;;11.00;3.43;;;;;;;;;;4963128;28;20461;-73
2023/02/11 04:48:34;;;;;;;11.43;4.40;;;;;;;;;;4946682;28;20100;-74
2023/02/11 04:51:00;;;;;;;8.73;3.63;;;;;;;;;;4946146;28;20039;-74
2023/02/11 04:53:25;;;;;;;8.67;3.87;;;;;;;;;;4978488;28;20465;-73
2023/02/11 04:55:52;;;;;;;9.20;3.47;;;;;;;;;;4962219;28;20096;-74
2023/02/11 04:58:18;;;;;;;12.90;3.60;;;;;;;;;;4978195;28;20046;-74
2023/02/11 05:00:43;;;;;;;9.40;3.60;;;;;;;;;;4978417;28;20053;-74
2023/02/11 05:03:09;;;;;;;10.07;3.80;;;;;;;;;;4946641;28;20141;-73
2023/02/11 05:05:39;;;;;;;12.90;4.70;;;;;;;;;;4946529;28;20049;-74
2023/02/11 05:08:11;;;;;;;8.63;3.90;;;;;;;;;;5007059;28;20054;-74
2023/02/11 05:10:37;;;;;;;16.70;4.73;;;;;;;;;;4978970;28;20104;-73
2023/02/11 05:13:03;;;;;;;9.97;5.53;;;;;;;;;;4962579;28;20046;-73
2023/02/11 05:15:30;;;;;;;15.17;5.47;;;;;;;;;;4962173;28;20042;-72
2023/02/11 05:17:58;;;;;;;11.57;4.73;;;;;;;;;;4977508;28;20458;-71
2023/02/11 05:20:24;;;;;;;12.80;5.27;;;;;;;;;;4946287;28;20034;-71
2023/02/11 05:22:50;;;;;;;15.23;6.93;;;;;;;;;;4977865;28;20052;-71
2023/02/11 05:25:16;;;;;;;25.73;6.77;;;;;;;;;;4947823;28;20377;-74
2023/02/11 05:27:44;;;;;;;19.13;6.50;;;;;;;;;;4977315;28;20120;-73
2023/02/11 05:30:10;;;;;;;11.57;5.17;;;;;;;;;;4961643;28;20093;-72
2023/02/11 05:32:39;;;;;;;12.90;5.07;;;;;;;;;;4962271;28;20046;-76
2023/02/11 05:35:08;;;;;;;13.60;4.67;;;;;;;;;;4962763;28;20465;-67
2023/02/11 05:37:34;;;;;;;16.23;4.97;;;;;;;;;;4977563;28;20129;-72
2023/02/11 05:40:10;;;;;;;9.87;4.43;;;;;;;;;;4961996;28;20566;-80
2023/02/11 05:42:38;;;;;;;12.97;4.47;;;;;;;;;;4994891;28;20046;-77
2023/02/11 05:45:06;;;;;;;12.70;4.73;;;;;;;;;;4945653;28;20041;-71
2023/02/11 05:47:32;;;;;;;9.90;4.47;;;;;;;;;;4961460;28;20124;-71
2023/02/11 05:49:57;;;;;;;16.07;5.57;;;;;;;;;;4965442;28;20096;-73
2023/02/11 05:52:24;;;;;;;13.37;4.93;;;;;;;;;;4976783;28;20062;-75
2023/02/11 05:54:51;;;;;;;14.00;4.73;;;;;;;;;;4977701;28;20050;-76
2023/02/11 05:57:19;;;;;;;12.33;4.73;;;;;;;;;;4976748;28;20134;-78
2023/02/11 05:59:46;;;;;;;13.90;4.73;;;;;;;;;;4969974;28;20046;-78
2023/02/11 06:02:12;;;;;;;11.57;5.30;;;;;;;;;;4970538;28;20535;-73
2023/02/11 06:04:37;;;;;;;11.63;4.57;;;;;;;;;;4965186;28;20057;-74
2023/02/11 06:07:03;;;;;;;12.33;5.23;;;;;;;;;;4968784;28;20472;-71
2023/02/11 06:09:29;;;;;;;15.07;4.93;;;;;;;;;;4954969;28;20050;-72
2023/02/11 06:11:55;;;;;;;12.53;5.27;;;;;;;;;;4970475;28;20034;-75
2023/02/11 06:14:21;;;;;;;7.73;3.93;;;;;;;;;;4977690;28;20044;-73
2023/02/11 06:16:47;;;;;;;15.73;6.40;;;;;;;;;;4985379;28;20038;-72
2023/02/11 06:19:13;;;;;;;14.23;5.87;;;;;;;;;;4977216;28;20121;-73
2023/02/11 06:21:39;;;;;;;11.63;5.43;;;;;;;;;;4985589;28;20038;-72
2023/02/11 06:24:07;;;;;;;16.03;5.57;;;;;;;;;;4960682;28;20030;-74
2023/02/11 06:26:33;;;;;;;17.13;5.70;;;;;;;;;;4970951;28;20097;-71
2023/02/11 06:28:59;;;;;;;9.93;3.70;;;;;;;;;;4986750;28;20038;-72
2023/02/11 06:31:26;;;;;;;13.83;5.13;;;;;;;;;;4969150;28;20137;-73
2023/02/11 06:33:53;;;;;;;11.70;4.70;;;;;;;;;;4970660;28;20125;-73
2023/02/11 06:36:20;;;;;;;10.77;3.67;;;;;;;;;;4986100;28;20447;-72
2023/02/11 06:38:46;;;;;;;8.43;4.03;;;;;;;;;;4961663;28;20353;-73
2023/02/11 06:41:13;;;;;;;13.50;3.93;;;;;;;;;;4970477;28;20124;-73
2023/02/11 06:43:40;;;;;;;17.63;4.50;;;;;;;;;;4954583;28;20092;-74
2023/02/11 06:46:07;;;;;;;12.80;4.80;;;;;;;;;;4976715;28;20108;-74
2023/02/11 06:48:33;;;;;;;9.93;4.57;;;;;;;;;;4968452;28;20033;-73
2023/02/11 06:51:03;;;;;;;10.73;4.30;;;;;;;;;;4972500;28;20034;-74
2023/02/11 06:53:29;;;;;;;5.38;3.35;;;;;;;;;;4962280;28;20054;-72
2023/02/11 06:55:56;;;;;;;12.93;4.67;;;;;;;;;;4960329;28;20076;-73
2023/02/11 06:58:24;;;;;;;12.03;4.17;;;;;;;;;;4975452;28;20037;-72
2023/02/11 07:00:51;;;;;;;12.53;4.43;;;;;;;;;;4976635;28;20075;-74
2023/02/11 07:03:17;;;;;;;14.87;4.03;;;;;;;;;;4959502;28;20030;-72
2023/02/11 07:05:43;;;;;;;11.30;4.13;;;;;;;;;;4962022;28;20117;-71
2023/02/11 07:08:08;;;;;;;9.50;4.10;;;;;;;;;;4968538;28;20121;-72
2023/02/11 07:10:34;;;;;;;8.63;4.07;;;;;;;;;;4970015;28;20030;-72
2023/02/11 07:13:00;;;;;;;10.63;4.50;;;;;;;;;;4969673;28;20042;-70
2023/02/11 07:15:27;;;;;;;26.00;4.83;;;;;;;;;;5001205;28;20045;-73
2023/02/11 07:17:56;;;;;;;11.00;3.83;;;;;;;;;;4937633;28;20137;-70
2023/02/11 07:20:21;;;;;;;10.03;3.90;;;;;;;;;;4983341;28;20089;-70
2023/02/11 07:22:47;;;;;;;12.10;4.30;;;;;;;;;;4969495;28;20034;-72
2023/02/11 07:25:15;;;;;;;12.47;4.37;;;;;;;;;;5003789;28;20026;-73
2023/02/11 07:27:42;;;;;;;8.67;4.23;;;;;;;;;;4961350;28;20415;-73
2023/02/11 07:30:07;;;;;;;11.20;4.43;;;;;;;;;;4959714;28;20026;-73
2023/02/11 07:32:35;;;;;;;11.57;4.23;;;;;;;;;;4969827;28;20097;-70
2023/02/11 07:35:02;;;;;;;9.40;4.23;;;;;;;;;;4985682;28;20037;-72
2023/02/11 07:37:29;;;;;;;11.23;5.10;;;;;;;;;;4948152;28;20053;-71
2023/02/11 07:39:57;;;;;;;8.77;4.00;;;;;;;;;;4943606;28;20034;-72
2023/02/11 07:42:22;;;;;;;13.23;4.20;;;;;;;;;;4975249;28;20096;-72
2023/02/11 07:44:49;;;;;;;8.40;4.20;;;;;;;;;;4959618;28;20034;-74
2023/02/11 07:47:15;;;;;;;11.40;4.80;;;;;;;;;;4959647;28;20045;-72
2023/02/11 07:49:41;;;;;;;15.90;5.20;;;;;;;;;;4944134;28;20034;-71
2023/02/11 07:52:07;;;;;;;9.63;4.93;;;;;;;;;;4959790;28;20394;-71
2023/02/11 07:54:32;;;;;;;13.33;5.00;;;;;;;;;;4959746;28;20030;-69
2023/02/11 07:57:00;;;;;;;12.73;5.23;;;;;;;;;;4960337;28;20495;-70
2023/02/11 07:59:26;;;;;;;12.13;5.60;;;;;;;;;;4960059;28;20034;-73
2023/02/11 08:01:55;;;;;;;17.20;5.20;;;;;;;;;;4959774;28;20475;-72
2023/02/11 08:04:22;;;;;;;12.30;5.67;;;;;;;;;;4975459;28;20049;-72
2023/02/11 08:06:48;;;;;;;11.53;5.30;;;;;;;;;;4959227;28;20039;-72
2023/02/11 08:09:15;;;;;;;11.87;4.63;;;;;;;;;;4961279;28;20469;-73
2023/02/11 08:11:42;;;;;;;18.40;5.60;;;;;;;;;;4979846;28;20042;-72
2023/02/11 08:14:09;;;;;;;17.67;5.63;;;;;;;;;;4947691;28;20152;-71
2023/02/11 08:16:35;;;;;;;10.90;4.40;;;;;;;;;;4979375;28;20038;-72
2023/02/11 08:19:03;;;;;;;12.97;5.80;;;;;;;;;;4995249;28;20361;-71
2023/02/11 08:21:29;;;;;;;11.87;5.07;;;;;;;;;;4963123;28;20105;-69
2023/02/11 08:24:01;;;;;;;11.37;5.63;;;;;;;;;;4979498;28;20065;-72
2023/02/11 08:26:30;;;;;;;9.63;4.43;;;;;;;;;;4993763;28;20472;-71
2023/02/11 08:28:56;;;;;;;13.90;5.67;;;;;;;;;;4988051;28;20482;-69
2023/02/11 08:31:23;;;;;;;9.90;5.33;;;;;;;;;;4967586;28;20039;-70
2023/02/11 08:33:52;;;;;;;12.27;4.97;;;;;;;;;;4963989;28;20049;-71
2023/02/11 08:36:20;;;;;;;11.87;5.93;;;;;;;;;;4989127;28;20037;-71
2023/02/11 08:38:46;;;;;;;13.73;5.23;;;;;;;;;;4964797;28;20026;-70
2023/02/11 08:41:13;;;;;;;16.60;5.67;;;;;;;;;;4998128;28;20111;-70
2023/02/11 08:43:40;;;;;;;20.73;5.27;;;;;;;;;;4972884;28;20058;-71
2023/02/11 08:46:07;;;;;;;11.10;5.23;;;;;;;;;;4998058;28;20061;-71
2023/02/11 08:48:33;;;;;;;14.73;6.57;;;;;;;;;;4982006;28;20487;-71
2023/02/11 08:51:04;;;;;;;13.03;5.07;;;;;;;;;;4981791;28;20068;-70
2023/02/11 08:53:30;;;;;;;14.10;4.78;;;;;;;;;;4965215;28;20160;-70
2023/02/11 08:55:56;;;;;;;14.17;5.00;;;;;;;;;;4981637;28;20033;-69
2023/02/11 08:58:23;;;;;;;19.30;6.27;;;;;;;;;;4997656;28;20487;-69
2023/02/11 09:00:48;;;;;;;12.03;5.93;;;;;;;;;;4965458;28;20033;-72
2023/02/11 09:03:15;;;;;;;12.17;5.43;;;;;;;;;;4981779;28;20461;-71
2023/02/11 09:05:44;;;;;;;8.73;4.50;;;;;;;;;;4965482;28;20061;-69
2023/02/11 09:08:11;;;;;;;11.10;4.50;;;;;;;;;;4981791;28;20045;-70
2023/02/11 09:10:38;;;;;;;10.87;4.67;;;;;;;;;;4981818;28;20366;-73
2023/02/11 09:13:05;;;;;;;11.90;5.57;;;;;;;;;;4964951;28;20104;-73
2023/02/11 09:15:32;;;;;;;11.93;4.60;;;;;;;;;;4981678;28;20050;-72
2023/02/11 09:18:00;;;;;;;12.33;4.67;;;;;;;;;;4981245;28;20042;-73
2023/02/11 09:20:27;;;;;;;12.23;5.50;;;;;;;;;;4996125;28;20042;-69
2023/02/11 09:22:57;;;;;;;12.87;4.97;;;;;;;;;;4997291;28;20046;-75
2023/02/11 09:25:25;;;;;;;11.87;4.67;;;;;;;;;;4965514;28;20120;-74
2023/02/11 09:27:53;;;;;;;16.80;5.43;;;;;;;;;;4965158;28;20042;-73
2023/02/11 09:30:21;;;;;;;12.13;4.70;;;;;;;;;;4981089;28;20128;-73
2023/02/11 09:32:52;;;;;;;14.23;4.97;;;;;;;;;;4980409;28;20077;-75
2023/02/11 09:35:19;;;;;;;16.03;5.93;;;;;;;;;;4980695;28;20041;-75
2023/02/11 09:37:47;;;;;;;14.53;6.10;;;;;;;;;;4980337;28;20123;-76
2023/02/11 09:40:21;;;;;;;10.60;5.60;;;;;;;;;;4985879;28;20108;-72
2023/02/11 09:42:47;;;;;;;13.67;5.23;;;;;;;;;;4997933;28;20156;-74
2023/02/11 09:45:20;;;;;;;13.07;6.17;;;;;;;;;;4981239;28;20061;-74
2023/02/11 09:47:47;;;;;;;13.60;5.73;;;;;;;;;;4964589;28;20041;-72
2023/02/11 09:50:18;;;;;;;17.87;5.20;;;;;;;;;;4980937;28;20131;-73
2023/02/11 09:52:44;;;;;;;17.08;6.30;;;;;;;;;;4962013;28;20393;-75
2023/02/11 09:55:20;;;;;;;17.80;6.13;;;;;;;;;;4962197;28;20133;-72
2023/02/11 09:57:47;;;;;;;10.60;5.93;;;;;;;;;;4995124;28;20437;-74
2023/02/11 10:00:19;;;;;;;12.70;5.70;;;;;;;;;;4994486;28;20066;-72
2023/02/11 10:02:45;;;;;;;14.03;5.70;;;;;;;;;;4962305;28;20042;-74
2023/02/11 10:05:12;;;;;;;16.33;5.87;;;;;;;;;;4959827;28;20030;-72
2023/02/11 10:07:45;;;;;;;17.73;6.60;;;;;;;;;;4958802;28;20045;-75
2023/02/11 10:10:31;;;;;;;15.83;6.07;;;;;;;;;;4960974;28;20038;-72
2023/02/11 10:13:05;;;;;;;19.17;6.73;;;;;;;;;;4977893;28;20034;-72
2023/02/11 10:15:48;;;;;;;17.20;6.57;;;;;;;;;;4961417;28;20045;-73
2023/02/11 10:18:19;;;;;;;10.67;4.67;;;;;;;;;;4977780;28;20034;-76
2023/02/11 10:20:46;;;;;;;20.27;6.87;;;;;;;;;;4962047;28;20057;-72
2023/02/11 10:23:15;;;;;;;18.37;6.03;;;;;;;;;;4978544;28;20096;-75
2023/02/11 10:25:46;;;;;;;19.43;7.53;;;;;;;;;;4978811;28;20050;-76
2023/02/11 10:28:13;;;;;;;12.53;5.67;;;;;;;;;;4978688;28;20093;-74
2023/02/11 10:30:59;;;;;;;14.67;5.37;;;;;;;;;;4977072;28;20861;-74
2023/02/11 10:33:27;;;;;;;12.70;5.40;;;;;;;;;;4959875;28;20042;-72
2023/02/11 10:35:52;;;;;;;12.73;4.70;;;;;;;;;;4975030;28;20073;-71
2023/02/11 10:38:18;;;;;;;12.90;5.47;;;;;;;;;;4976910;28;20046;-71
2023/02/11 10:40:45;;;;;;;15.27;4.93;;;;;;;;;;4976684;28;20038;-73
2023/02/11 10:43:16;;;;;;;15.40;5.50;;;;;;;;;;4959870;28;20543;-73
2023/02/11 10:45:43;;;;;;;14.70;4.93;;;;;;;;;;4959833;28;20045;-74
2023/02/11 10:48:35;;;;;;;13.47;4.70;;;;;;;;;;4976222;28;20034;-74
2023/02/11 10:51:20;;;;;;;13.07;5.20;;;;;;;;;;4959604;28;20065;-74
2023/02/11 10:53:47;;;;;;;12.50;4.97;;;;;;;;;;4992558;28;20062;-74
2023/02/11 10:56:24;;;;;;;13.80;5.50;;;;;;;;;;4976557;28;20048;-74
2023/02/11 10:58:58;;;;;;;11.27;4.97;;;;;;;;;;4992801;28;20112;-74
2023/02/11 11:01:43;;;;;;;14.57;5.83;;;;;;;;;;4976776;28;20545;-74
2023/02/11 11:04:45;;;;;;;12.90;5.77;;;;;;;;;;4976132;28;20069;-74
2023/02/11 11:07:12;;;;;;;11.57;5.50;;;;;;;;;;4936694;29;20035;-74
2023/02/11 11:09:44;;;;;;;16.03;5.97;;;;;;;;;;4980684;28;20378;-74
2023/02/11 11:12:39;;;;;;;12.83;5.23;;;;;;;;;;4975963;28;20038;-74
2023/02/11 11:15:20;;;;;;;18.80;6.07;;;;;;;;;;4970386;28;20050;-74
2023/02/11 11:17:46;;;;;;;;;;;;;;;;;;4976596;28;20081;-74
2023/02/11 11:20:26;;;;;;;11.43;5.30;;;;;;;;;;4975867;28;19949;-73
2023/02/11 11:23:12;;;;;;;11.75;5.22;;;;;;;;;;4993087;28;20034;-72
2023/02/11 11:25:40;;;;;;;14.80;5.60;;;;;;;;;;4981578;28;20050;-73
2023/02/11 11:28:05;;;;;;;10.80;5.03;;;;;;;;;;4975787;28;20129;-74
2023/02/11 11:30:41;;;;;;;16.73;6.00;;;;;;;;;;4975615;28;20125;-73
2023/02/11 11:33:27;;;;;;;13.57;5.57;;;;;;;;;;4975848;28;20481;-74
2023/02/11 11:36:16;;;;;;;13.47;6.00;;;;;;;;;;4975799;28;20073;-72
2023/02/11 11:38:43;;;;;;;11.10;5.30;;;;;;;;;;4970241;28;20057;-74
2023/02/11 11:41:16;;;;;;;15.30;5.87;;;;;;;;;;4991961;28;20035;-75
2023/02/11 11:43:59;;;;;;;14.93;5.83;;;;;;;;;;4991452;28;20133;-73
2023/02/11 11:46:28;;;;;;;14.47;5.60;;;;;;;;;;4975661;28;20038;-73
2023/02/11 11:49:00;;;;;;;15.67;6.00;;;;;;;;;;4959459;28;20034;-71
2023/02/11 11:51:46;;;;;;;15.37;5.37;;;;;;;;;;5007944;28;20469;-73
2023/02/11 11:54:14;;;;;;;11.47;5.30;;;;;;;;;;4991479;28;20054;-74
2023/02/11 11:56:46;;;;;;;10.23;5.20;;;;;;;;;;4959615;28;20159;-73
2023/02/11 11:59:13;;;;;;;10.98;5.32;;;;;;;;;;4975644;28;20034;-74
2023/02/11 12:01:39;;;;;;;14.30;5.47;;;;;;;;;;4991900;28;20116;-73
2023/02/11 12:04:37;;;;;;;17.37;6.03;;;;;;;;;;4959530;28;20132;-73
2023/02/11 12:07:21;;;;;;;18.20;6.00;;;;;;;;;;4959659;28;20046;-73
2023/02/11 12:10:06;;;;;;;13.73;5.80;;;;;;;;;;4975730;28;20197;-74
2023/02/11 12:12:50;;;;;;;9.97;5.23;;;;;;;;;;4975380;28;20125;-74
2023/02/11 12:15:19;;;;;;;11.97;5.60;;;;;;;;;;4975446;28;20042;-73
2023/02/11 12:18:10;;;;;;;9.63;4.83;;;;;;;;;;4959337;28;20039;-73
2023/02/11 12:20:48;;;;;;;12.60;5.23;;;;;;;;;;4959494;28;20042;-73
2023/02/11 12:23:27;;;;;;;13.10;5.43;;;;;;;;;;4959286;28;20030;-73
2023/02/11 12:26:01;;;;;;;15.73;5.93;;;;;;;;;;4975728;28;20045;-73
2023/02/11 12:28:50;;;;;;;12.40;5.27;;;;;;;;;;4991694;28;20053;-72
2023/02/11 12:31:22;;;;;;;15.53;5.73;;;;;;;;;;4969712;28;20483;-73
2023/02/11 12:33:53;;;;;;;14.43;5.90;;;;;;;;;;4959341;28;20069;-73
2023/02/11 12:36:19;;;;;;;12.60;6.50;;;;;;;;;;4959185;28;20069;-73
2023/02/11 12:38:58;;;;;;;18.03;6.13;;;;;;;;;;4959207;28;20476;-74
2023/02/11 12:44:34;;;;;;;9.60;5.33;;;;;;;;;;4991477;28;20038;-73
2023/02/11 12:47:21;;;;;;;16.53;5.73;;;;;;;;;;4991277;28;20049;-73
2023/02/11 12:50:03;;;;;;;15.90;5.73;;;;;;;;;;4991438;28;20057;-74
2023/02/11 12:52:51;;;;;;;14.10;5.87;;;;;;;;;;4975111;28;20043;-73
2023/02/11 12:55:20;;;;;;;16.10;6.10;;;;;;;;;;4978641;28;20069;-73
2023/02/11 12:57:47;;;;;;;13.80;6.93;;;;;;;;;;4965876;28;20037;-74
2023/02/11 13:00:18;;;;;;;23.13;6.80;;;;;;;;;;4965838;28;20041;-73
2023/02/11 13:03:10;;;;;;;13.00;6.10;;;;;;;;;;4981770;28;20453;-73
2023/02/11 13:05:41;;;;;;;17.30;7.10;;;;;;;;;;5014010;28;20053;-74
2023/02/11 13:08:07;;;;;;;;;;;;;;;;;;4966163;28;20116;-74
2023/02/11 13:10:34;;;;;;;14.97;6.50;;;;;;;;;;4981483;28;20067;-74
2023/02/11 13:13:17;;;;;;;13.73;5.63;;;;;;;;;;4981419;28;20224;-74
2023/02/11 13:15:45;;;;;;;14.23;6.00;;;;;;;;;;4981492;28;20033;-73
2023/02/11 13:18:23;;;;;;;19.43;6.80;;;;;;;;;;4981461;28;20037;-74
2023/02/11 13:21:17;;;;;;;25.33;7.60;;;;;;;;;;4981834;28;20472;-74
2023/02/11 13:23:49;;;;;;;16.80;7.20;;;;;;;;;;4981204;28;20030;-73
2023/02/11 13:26:18;;;;;;;18.20;6.70;;;;;;;;;;4965305;28;20068;-73
2023/02/11 13:28:44;;;;;;;14.57;6.33;;;;;;;;;;4981430;28;20487;-72
2023/02/11 13:31:11;;;;;;;17.57;6.87;;;;;;;;;;4965194;28;20073;-74
2023/02/11 13:33:44;;;;;;;18.37;7.17;;;;;;;;;;4964867;28;20090;-73
2023/02/11 13:36:17;;;;;;;16.87;7.57;;;;;;;;;;4997509;28;20034;-73
2023/02/11 13:38:51;;;;;;;17.83;7.33;;;;;;;;;;4981048;28;20033;-73
2023/02/11 13:41:19;;;;;;;12.43;5.97;;;;;;;;;;4964757;28;20049;-74
2023/02/11 13:43:56;;;;;;;15.47;6.37;;;;;;;;;;4964845;28;20419;-73
2023/02/11 13:46:22;;;;;;;20.33;7.63;;;;;;;;;;4980390;28;20042;-73
2023/02/11 13:48:49;;;;;;;16.30;6.30;;;;;;;;;;4980735;28;20040;-73
2023/02/11 13:51:16;;;;;;;23.33;7.60;;;;;;;;;;4980866;28;20045;-73
2023/02/11 13:53:50;;;;;;;24.73;8.50;;;;;;;;;;4964538;28;20063;-73
2023/02/11 13:56:45;;;;;;;20.10;7.23;;;;;;;;;;4980678;28;20183;-73
2023/02/11 13:59:32;;;;;;;19.77;7.83;;;;;;;;;;4977923;28;20381;-73
2023/02/11 14:10:50;;;;;;;15.27;6.45;;;;;;;;;;4980759;28;20034;-73
2023/02/11 14:13:25;;;;;;;15.37;6.13;;;;;;;;;;4964299;28;20062;-72
2023/02/11 14:16:03;;;;;;;20.53;7.43;;;;;;;;;;4964447;28;20525;-73
2023/02/11 14:18:36;;;;;;;20.53;6.90;;;;;;;;;;4980795;28;20034;-73
2023/02/11 14:21:10;;;;;;;20.60;6.87;;;;;;;;;;4964672;28;20049;-73
2023/02/11 14:23:36;;;;;;;25.43;8.10;;;;;;;;;;4980674;28;20037;-73
2023/02/11 14:26:10;;;;;;;20.10;7.57;;;;;;;;;;4980531;28;20045;-73
2023/02/11 14:28:37;;;;;;;20.43;6.90;;;;;;;;;;4980267;28;20044;-72
2023/02/11 14:31:16;;;;;;;22.23;7.23;;;;;;;;;;4980490;28;20045;-72
2023/02/11 14:33:48;;;;;;;19.23;7.03;;;;;;;;;;4964204;28;20564;-73
2023/02/11 14:36:32;;;;;;;23.40;7.10;;;;;;;;;;4981433;28;20104;-72
2023/02/11 14:39:13;;;;;;;15.53;7.13;;;;;;;;;;4965615;28;20049;-74
2023/02/11 14:41:40;;;;;;;13.07;5.55;;;;;;;;;;4997675;28;20123;-73
2023/02/11 14:44:13;;;;;;;19.27;6.77;;;;;;;;;;4964272;28;20033;-74
2023/02/11 14:46:42;;;;;;;13.00;5.80;;;;;;;;;;4964010;28;20045;-74
2023/02/11 14:49:15;;;;;;;17.40;7.83;;;;;;;;;;4980026;28;20033;-73
2023/02/11 14:51:41;;;;;;;22.77;7.40;;;;;;;;;;4963924;28;20128;-72
2023/02/11 14:54:14;;;;;;;23.37;7.53;;;;;;;;;;4979765;28;20536;-73
2023/02/11 14:56:41;;;;;;;23.27;6.60;;;;;;;;;;4979837;28;20038;-73
2023/02/11 14:59:17;;;;;;;17.00;6.73;;;;;;;;;;4963718;28;20041;-74
2023/02/11 15:01:47;;;;;;;17.57;6.50;;;;;;;;;;4963667;28;20468;-73
2023/02/11 15:04:27;;;;;;;24.63;8.73;;;;;;;;;;4963336;28;20449;-73